Time;durP1;ratioP1;P1;durP2;ratioP2;P2;SDS_P1;SDS_P2;PMS_P1;PMS_P2;Temp;Humidity;BMP_temperature;BMP_pressure;BME280_temperature;BME280_humidity;BME280_pressure;Samples;Min_cycle;Max_cycle;Signal;HPM_P1;HPM_P2
2023/08/19 00:01:05;;;;;;;14.23;8.50;;;24.90;99.90;;;;;;4961025;28;20215;-83
2023/08/19 00:03:33;;;;;;;9.03;8.13;;;24.80;99.90;;;;;;4968164;28;20462;-82
2023/08/19 00:06:04;;;;;;;9.80;8.33;;;24.80;99.90;;;;;;4958046;28;20490;-82
2023/08/19 00:08:29;;;;;;;8.33;7.63;;;24.90;93.80;;;;;;4959011;28;20444;-84
2023/08/19 00:10:55;;;;;;;9.63;8.73;;;24.80;9.70;;;;;;4968645;28;20469;-82
2023/08/19 00:13:21;;;;;;;11.73;8.73;;;24.80;9.30;;;;;;4958675;28;20291;-83
2023/08/19 00:15:46;;;;;;;13.43;10.17;;;24.70;99.90;;;;;;4980980;28;20190;-82
2023/08/19 00:18:12;;;;;;;9.83;8.93;;;24.70;99.90;;;;;;4965286;28;20226;-83
2023/08/19 00:20:37;;;;;;;11.87;9.30;;;24.60;99.90;;;;;;4961242;28;20631;-82
2023/08/19 00:23:03;;;;;;;14.43;9.77;;;24.60;99.90;;;;;;4958274;28;20568;-81
2023/08/19 00:25:29;;;;;;;10.43;8.77;;;24.60;1.00;;;;;;4965075;28;20190;-81
2023/08/19 00:27:54;;;;;;;11.53;9.80;;;24.50;1.00;;;;;;4953404;28;20274;-83
2023/08/19 00:30:20;;;;;;;10.93;8.80;;;24.50;1.00;;;;;;4960667;28;20217;-81
2023/08/19 00:32:47;;;;;;;9.20;8.30;;;24.50;1.00;;;;;;4963880;28;20684;-82
2023/08/19 00:35:13;;;;;;;13.13;9.37;;;24.50;1.00;;;;;;4962436;28;20471;-83
2023/08/19 00:37:39;;;;;;;8.97;8.13;;;24.40;99.90;;;;;;4959486;28;20442;-83
2023/08/19 00:40:05;;;;;;;13.77;8.90;;;24.40;55.80;;;;;;4961644;28;20462;-81
2023/08/19 00:42:31;;;;;;;9.53;8.47;;;24.40;93.10;;;;;;4962046;28;20277;-82
2023/08/19 00:44:57;;;;;;;10.90;9.60;;;24.30;99.90;;;;;;4963861;28;20533;-83
2023/08/19 00:47:23;;;;;;;9.23;8.00;;;24.30;99.90;;;;;;4954964;28;20205;-81
2023/08/19 00:49:49;;;;;;;10.80;8.97;;;24.30;99.90;;;;;;4961238;28;20224;-82
2023/08/19 00:52:15;;;;;;;9.60;8.70;;;24.30;99.90;;;;;;4964410;28;20468;-83
2023/08/19 00:54:41;;;;;;;10.83;9.50;;;24.20;99.90;;;;;;4958928;28;20249;-82
2023/08/19 00:57:07;;;;;;;10.07;9.10;;;24.20;99.90;;;;;;4961255;28;20531;-81
2023/08/19 00:59:32;;;;;;;9.57;8.70;;;24.20;1.00;;;;;;4961723;28;20575;-83
2023/08/19 01:01:58;;;;;;;10.07;9.20;;;24.10;1.00;;;;;;4959777;28;20636;-81
2023/08/19 01:04:24;;;;;;;10.67;8.37;;;24.10;1.00;;;;;;4959620;28;20212;-81
2023/08/19 01:07:11;;;;;;;9.97;9.07;;;24.00;1.00;;;;;;4957862;28;20199;-83
2023/08/19 01:09:58;;;;;;;10.47;9.37;;;24.00;1.00;;;;;;4974888;28;20445;-82
2023/08/19 01:12:42;;;;;;;10.00;9.10;;;24.00;1.00;;;;;;4963883;28;20476;-81
2023/08/19 01:15:17;;;;;;;10.30;9.23;;;24.00;1.00;;;;;;4968016;28;20440;-83
2023/08/19 01:17:45;;;;;;;10.33;8.50;;;24.00;1.00;;;;;;4960674;28;20444;-83
2023/08/19 01:20:11;;;;;;;10.13;9.13;;;23.90;1.00;;;;;;4963992;28;20477;-82
2023/08/19 01:22:43;;;;;;;14.20;9.70;;;23.90;53.80;;;;;;4958366;28;20674;-83
2023/08/19 01:25:10;;;;;;;10.30;8.93;;;23.80;99.90;;;;;;4967517;28;20795;-82
2023/08/19 01:27:35;;;;;;;11.00;8.90;;;23.70;99.90;;;;;;4961555;28;20447;-82
2023/08/19 01:30:01;;;;;;;12.03;9.73;;;23.70;99.90;;;;;;4964385;28;20803;-83
2023/08/19 01:32:27;;;;;;;10.70;9.60;;;23.70;99.90;;;;;;4956349;28;20206;-83
2023/08/19 01:34:53;;;;;;;10.90;9.00;;;23.70;1.00;;;;;;4963980;28;20238;-82
2023/08/19 01:37:43;;;;;;;11.20;10.10;;;23.70;1.00;;;;;;4960840;28;20441;-83
2023/08/19 01:40:10;;;;;;;13.07;9.60;;;23.60;1.00;;;;;;4958200;28;20879;-83
2023/08/19 01:42:37;;;;;;;10.43;9.33;;;23.60;1.00;;;;;;4957736;28;20454;-83
2023/08/19 01:45:04;;;;;;;9.60;8.60;;;23.60;1.00;;;;;;4958144;28;20448;-83
2023/08/19 01:47:30;;;;;;;11.13;9.23;;;23.60;1.00;;;;;;4965145;28;20464;-82
2023/08/19 01:49:55;;;;;;;10.57;9.53;;;23.60;1.00;;;;;;4964988;28;20473;-83
2023/08/19 01:52:21;;;;;;;10.03;9.00;;;23.60;1.00;;;;;;4962912;28;20209;-83
2023/08/19 01:54:46;;;;;;;11.63;9.30;;;23.70;1.00;;;;;;4967620;28;20631;-82
2023/08/19 01:57:12;;;;;;;15.80;11.20;;;23.70;1.00;;;;;;4979142;28;20210;-82
2023/08/19 01:59:37;;;;;;;12.20;9.33;;;23.70;99.90;;;;;;4962884;28;20687;-82
2023/08/19 02:02:03;;;;;;;15.07;9.20;;;23.60;1.00;;;;;;4964217;28;20217;-82
2023/08/19 02:04:28;;;;;;;9.87;8.17;;;23.70;1.00;;;;;;4965706;28;20214;-82
2023/08/19 02:06:54;;;;;;;15.63;10.80;;;23.70;1.00;;;;;;4965119;28;20187;-82
2023/08/19 02:09:23;;;;;;;12.40;10.40;;;23.70;1.00;;;;;;4965492;28;20191;-82
2023/08/19 02:11:49;;;;;;;12.00;9.80;;;23.70;1.00;;;;;;4963906;28;21271;-81
2023/08/19 02:14:17;;;;;;;9.97;9.07;;;23.70;1.00;;;;;;4973258;28;20458;-82
2023/08/19 02:16:42;;;;;;;10.60;8.77;;;23.70;1.00;;;;;;4977582;28;20883;-83
2023/08/19 02:19:08;;;;;;;19.07;10.57;;;23.70;1.00;;;;;;4965519;28;20465;-82
2023/08/19 02:21:33;;;;;;;12.33;8.77;;;23.70;1.00;;;;;;4962920;28;20292;-83
2023/08/19 02:23:59;;;;;;;11.83;9.30;;;23.70;1.00;;;;;;4964745;28;20223;-82
2023/08/19 02:26:24;;;;;;;15.10;10.17;;;23.70;1.00;;;;;;4965413;28;20192;-82
2023/08/19 02:28:50;;;;;;;10.07;9.03;;;23.70;1.00;;;;;;4963202;28;20313;-82
2023/08/19 02:31:15;;;;;;;10.53;8.80;;;23.70;1.00;;;;;;4966211;28;20217;-82
2023/08/19 02:33:41;;;;;;;9.83;8.93;;;23.70;1.00;;;;;;4962513;28;20217;-83
2023/08/19 02:36:09;;;;;;;9.90;8.97;;;23.70;1.00;;;;;;4969994;28;20184;-83
2023/08/19 02:38:35;;;;;;;12.57;9.03;;;23.70;1.00;;;;;;4962150;28;20438;-83
2023/08/19 02:41:00;;;;;;;9.40;8.43;;;23.70;1.00;;;;;;4959268;28;21060;-81
2023/08/19 02:43:26;;;;;;;11.60;8.37;;;23.80;99.90;;;;;;4968974;28;20271;-81
2023/08/19 02:45:53;;;;;;;9.30;8.10;;;23.80;99.90;;;;;;4976113;28;20654;-82
2023/08/19 02:48:18;;;;;;;10.03;9.03;;;23.80;99.90;;;;;;4962546;28;20248;-81
2023/08/19 02:50:44;;;;;;;9.47;8.47;;;23.80;99.90;;;;;;4965150;28;20473;-83
2023/08/19 02:53:09;;;;;;;10.67;9.40;;;23.80;99.90;;;;;;4970327;28;20232;-82
2023/08/19 02:55:42;;;;;;;16.27;9.43;;;23.70;99.90;;;;;;4967785;28;20190;-82
2023/08/19 02:58:09;;;;;;;9.50;8.57;;;23.70;99.90;;;;;;4960521;28;20193;-83
2023/08/19 03:00:38;;;;;;;9.90;8.00;;;23.70;99.90;;;;;;4959681;28;20464;-82
2023/08/19 03:03:05;;;;;;;9.27;8.33;;;23.60;99.90;;;;;;4959544;28;20440;-82
2023/08/19 03:05:37;;;;;;;9.53;8.17;;;23.60;99.90;;;;;;4959918;28;20480;-82
2023/08/19 03:08:07;;;;;;;11.83;8.73;;;23.70;99.90;;;;;;4968277;28;20465;-80
2023/08/19 03:10:37;;;;;;;9.53;8.33;;;23.60;55.20;;;;;;4965624;28;20541;-79
2023/08/19 03:13:04;;;;;;;14.33;9.10;;;23.60;1.00;;;;;;4958725;28;21264;-82
2023/08/19 03:15:30;;;;;;;8.70;7.80;;;23.60;1.00;;;;;;4955108;28;20429;-82
2023/08/19 03:17:56;;;;;;;10.20;8.57;;;23.60;1.00;;;;;;4959978;28;20496;-83
2023/08/19 03:20:21;;;;;;;14.77;8.37;;;23.60;99.90;;;;;;4961200;28;21021;-82
2023/08/19 03:22:47;;;;;;;8.00;7.20;;;23.60;99.90;;;;;;4956765;28;20227;-82
2023/08/19 03:25:12;;;;;;;10.50;7.53;;;23.70;99.90;;;;;;4967451;28;20232;-83
2023/08/19 03:27:38;;;;;;;8.73;7.83;;;23.60;99.90;;;;;;4980281;28;20194;-82
2023/08/19 03:30:04;;;;;;;8.43;7.40;;;23.70;99.90;;;;;;4960298;28;20288;-82
2023/08/19 03:32:30;;;;;;;9.93;8.93;;;23.70;99.90;;;;;;4967439;28;20216;-82
2023/08/19 03:34:56;;;;;;;10.83;8.20;;;23.60;99.90;;;;;;4962210;28;20441;-82
2023/08/19 03:37:22;;;;;;;10.23;8.17;;;23.60;99.90;;;;;;4965713;28;20433;-82
2023/08/19 03:39:48;;;;;;;9.90;8.87;;;23.60;1.00;;;;;;4958516;28;20183;-83
2023/08/19 03:42:13;;;;;;;9.67;7.90;;;23.60;1.00;;;;;;4955137;28;20492;-82
2023/08/19 03:44:39;;;;;;;11.33;8.33;;;23.60;99.90;;;;;;4962436;28;20186;-81
2023/08/19 03:47:04;;;;;;;8.83;8.03;;;23.60;99.90;;;;;;4969465;28;20208;-82
2023/08/19 03:49:30;;;;;;;11.90;9.83;;;23.60;99.90;;;;;;4961207;28;20670;-81
2023/08/19 03:51:55;;;;;;;9.90;8.07;;;23.60;99.90;;;;;;4960417;28;20567;-82
2023/08/19 03:54:21;;;;;;;14.33;7.60;;;23.50;99.90;;;;;;4968519;28;20227;-83
2023/08/19 03:56:46;;;;;;;12.67;8.87;;;23.50;1.00;;;;;;4958535;28;20195;-83
2023/08/19 03:59:12;;;;;;;8.53;7.63;;;23.40;1.00;;;;;;4965808;28;20275;-81
2023/08/19 04:01:39;;;;;;;12.03;8.13;;;23.40;1.00;;;;;;4953566;28;20268;-82
2023/08/19 04:04:06;;;;;;;10.87;8.23;;;23.40;1.00;;;;;;4962687;28;20207;-82
2023/08/19 04:06:32;;;;;;;10.30;7.67;;;23.30;1.00;;;;;;4960538;28;20467;-82
2023/08/19 04:08:58;;;;;;;9.70;8.23;;;23.30;1.00;;;;;;4959416;28;20445;-82
2023/08/19 04:11:23;;;;;;;9.40;7.77;;;23.30;1.00;;;;;;4964488;28;20279;-81
2023/08/19 04:13:49;;;;;;;13.00;8.83;;;23.30;1.00;;;;;;4962852;28;20865;-82
2023/08/19 04:16:14;;;;;;;8.57;7.77;;;23.30;1.00;;;;;;4953951;28;20193;-82
2023/08/19 04:18:40;;;;;;;14.37;8.77;;;23.20;1.00;;;;;;4963329;28;20181;-82
2023/08/19 04:21:07;;;;;;;10.23;7.93;;;23.20;1.00;;;;;;4969148;28;20226;-82
2023/08/19 04:23:33;;;;;;;10.93;7.90;;;23.20;99.90;;;;;;4963693;28;20284;-82
2023/08/19 04:25:59;;;;;;;10.00;7.27;;;23.30;99.90;;;;;;4956452;28;20494;-82
2023/08/19 04:28:25;;;;;;;10.60;6.73;;;23.30;85.80;;;;;;4955815;28;20433;-82
2023/08/19 04:30:53;;;;;;;7.70;6.90;;;23.30;1.00;;;;;;4957960;28;20468;-82
2023/08/19 04:33:19;;;;;;;7.77;6.97;;;23.40;99.90;;;;;;4959543;28;20465;-82
2023/08/19 04:35:46;;;;;;;9.30;7.60;;;23.40;26.60;;;;;;4975762;28;20427;-83
2023/08/19 04:38:11;;;;;;;9.43;7.10;;;23.40;1.00;;;;;;4958665;28;20301;-82
2023/08/19 04:40:37;;;;;;;9.40;7.63;;;23.50;1.00;;;;;;4970322;28;20452;-82
2023/08/19 04:43:02;;;;;;;11.70;7.00;;;23.50;99.90;;;;;;4972286;28;20189;-81
2023/08/19 04:45:28;;;;;;;8.20;6.77;;;23.50;1.00;;;;;;4962850;28;20201;-82
2023/08/19 04:47:53;;;;;;;8.87;6.60;;;23.50;99.90;;;;;;4960891;28;20264;-82
2023/08/19 04:50:21;;;;;;;8.63;7.37;;;23.50;1.00;;;;;;4963601;28;20216;-82
2023/08/19 04:52:47;;;;;;;14.50;7.50;;;23.60;99.90;;;;;;4962006;28;20272;-83
2023/08/19 04:55:13;;;;;;;16.33;7.87;;;23.60;99.90;;;;;;4971853;28;20449;-83
2023/08/19 04:57:38;;;;;;;8.10;6.80;;;23.60;46.20;;;;;;4967229;28;20181;-83
2023/08/19 05:00:05;;;;;;;17.47;7.90;;;23.70;1.00;;;;;;4959300;28;20464;-82
2023/08/19 05:02:31;;;;;;;9.60;6.50;;;23.70;1.00;;;;;;4960908;28;20641;-82
2023/08/19 05:04:56;;;;;;;8.10;6.00;;;23.70;1.00;;;;;;4959670;28;20448;-82
2023/08/19 05:07:22;;;;;;;11.50;6.50;;;23.80;1.00;;;;;;4959382;28;20194;-82
2023/08/19 05:09:47;;;;;;;9.53;6.30;;;23.80;99.90;;;;;;4960012;28;20620;-83
2023/08/19 05:12:13;;;;;;;9.70;6.97;;;23.80;99.90;;;;;;4966463;28;20218;-80
2023/08/19 05:14:38;;;;;;;9.60;6.60;;;23.80;99.90;;;;;;4959218;28;20278;-82
2023/08/19 05:17:04;;;;;;;8.10;7.30;;;23.80;99.90;;;;;;4966806;28;20183;-82
2023/08/19 05:19:31;;;;;;;10.50;6.50;;;23.90;99.90;;;;;;4966698;28;20194;-81
2023/08/19 05:21:57;;;;;;;9.63;6.77;;;23.80;99.90;;;;;;4962445;28;20196;-83
2023/08/19 05:24:22;;;;;;;7.10;5.90;;;23.80;99.90;;;;;;4961675;28;20450;-82
2023/08/19 05:26:48;;;;;;;8.83;6.57;;;23.80;99.90;;;;;;4968569;28;20599;-82
2023/08/19 05:29:13;;;;;;;8.60;6.07;;;23.90;43.70;;;;;;4967766;28;20209;-82
2023/08/19 05:31:39;;;;;;;9.23;6.57;;;23.90;99.90;;;;;;4956238;28;20298;-82
2023/08/19 05:34:07;;;;;;;9.10;6.13;;;23.90;1.00;;;;;;4960007;28;20249;-83
2023/08/19 05:36:32;;;;;;;8.07;6.93;;;24.00;1.00;;;;;;4954573;28;20261;-83
2023/08/19 05:38:58;;;;;;;7.70;6.30;;;24.00;1.00;;;;;;4958736;28;20940;-82
2023/08/19 05:41:23;;;;;;;8.10;7.00;;;24.00;1.00;;;;;;4956869;28;20215;-82
2023/08/19 05:43:49;;;;;;;7.17;6.47;;;23.90;99.90;;;;;;4967466;28;20203;-82
2023/08/19 05:46:14;;;;;;;7.20;6.33;;;23.90;99.90;;;;;;4961946;28;20188;-82
2023/08/19 05:48:40;;;;;;;12.50;6.50;;;23.90;99.90;;;;;;4959915;28;20204;-82
2023/08/19 05:51:05;;;;;;;10.60;6.70;;;24.00;99.90;;;;;;4957160;28;20198;-82
2023/08/19 05:53:31;;;;;;;10.73;6.57;;;24.00;99.90;;;;;;4965911;28;20250;-82
2023/08/19 05:55:57;;;;;;;7.73;6.40;;;24.00;99.90;;;;;;4966130;28;20250;-81
2023/08/19 05:58:22;;;;;;;9.37;6.67;;;24.00;86.30;;;;;;4960103;28;20212;-82
2023/08/19 06:00:48;;;;;;;9.03;6.00;;;24.00;95.60;;;;;;4971048;28;20509;-83
2023/08/19 06:03:14;;;;;;;7.53;5.53;;;24.10;1.00;;;;;;4964588;28;20202;-82
2023/08/19 06:05:39;;;;;;;8.53;6.00;;;24.20;1.00;;;;;;4960055;28;20195;-82
2023/08/19 06:08:05;;;;;;;8.83;5.73;;;24.30;99.90;;;;;;4964938;28;20438;-82
2023/08/19 06:10:31;;;;;;;7.37;6.27;;;24.50;99.90;;;;;;4957031;28;20291;-82
2023/08/19 06:12:57;;;;;;;10.23;6.17;;;24.50;99.90;;;;;;4960616;28;20681;-82
2023/08/19 06:15:23;;;;;;;7.60;6.13;;;24.50;99.90;;;;;;4961169;28;20194;-82
2023/08/19 06:17:48;;;;;;;10.53;6.40;;;24.50;99.90;;;;;;4968541;28;20490;-80
2023/08/19 06:20:14;;;;;;;10.40;6.77;;;24.70;1.00;;;;;;4961867;28;20486;-82
2023/08/19 06:22:39;;;;;;;8.40;5.73;;;24.70;1.00;;;;;;4971694;28;20621;-82
2023/08/19 06:25:06;;;;;;;13.43;6.40;;;24.90;1.00;;;;;;4962445;28;20188;-81
2023/08/19 06:27:31;;;;;;;10.47;6.83;;;24.90;1.00;;;;;;4960495;28;20195;-82
2023/08/19 06:29:57;;;;;;;9.30;5.93;;;25.10;99.90;;;;;;4959666;28;20968;-83
2023/08/19 06:32:23;;;;;;;6.63;6.00;;;25.00;99.90;;;;;;4966498;28;20216;-82
2023/08/19 06:34:48;;;;;;;8.70;5.97;;;25.00;99.90;;;;;;4965000;28;20181;-82
2023/08/19 06:37:21;;;;;;;11.53;6.63;;;25.10;99.90;;;;;;4967290;28;20202;-82
2023/08/19 06:39:52;;;;;;;9.37;6.03;;;25.20;99.90;;;;;;4962710;28;20203;-81
2023/08/19 06:42:19;;;;;;;7.80;6.50;;;25.30;99.90;;;;;;4970908;28;20438;-83
2023/08/19 06:44:49;;;;;;;7.50;5.60;;;25.40;33.30;;;;;;4960299;28;20439;-82
2023/08/19 06:47:22;;;;;;;8.10;6.40;;;25.40;33.20;;;;;;4980389;28;20442;-82
2023/08/19 06:49:48;;;;;;;12.93;6.57;;;25.40;1.00;;;;;;4960521;28;20794;-81
2023/08/19 06:52:14;;;;;;;10.73;6.37;;;25.40;99.90;;;;;;4961126;28;20477;-82
2023/08/19 06:54:41;;;;;;;11.13;6.80;;;25.40;99.90;;;;;;4956355;28;20205;-82
2023/08/19 06:57:09;;;;;;;9.60;5.77;;;25.30;99.90;;;;;;4966915;28;20442;-80
2023/08/19 06:59:39;;;;;;;10.70;6.50;;;25.30;99.90;;;;;;4970720;28;20180;-80
2023/08/19 07:02:07;;;;;;;13.20;6.93;;;25.30;99.90;;;;;;4958357;28;20968;-82
2023/08/19 07:04:33;;;;;;;8.10;5.63;;;25.20;99.90;;;;;;4972354;28;20947;-82
2023/08/19 07:07:03;;;;;;;8.63;5.47;;;25.20;99.90;;;;;;4961433;28;20496;-82
2023/08/19 07:09:29;;;;;;;7.17;6.47;;;25.30;99.90;;;;;;4957555;28;20441;-82
2023/08/19 07:11:56;;;;;;;9.30;6.53;;;25.40;99.90;;;;;;4958963;28;20938;-83
2023/08/19 07:14:26;;;;;;;8.03;6.00;;;25.60;99.90;;;;;;4956728;28;20431;-82
2023/08/19 07:16:54;;;;;;;7.63;5.83;;;25.80;99.90;;;;;;4958185;28;20502;-83
2023/08/19 07:19:47;;;;;;;10.33;5.70;;;25.90;28.20;;;;;;4972069;28;20781;-83
2023/08/19 07:22:14;;;;;;;11.53;5.57;;;26.10;1.00;;;;;;4963004;28;20432;-83
2023/08/19 07:24:42;;;;;;;9.03;6.40;;;26.30;1.00;;;;;;4963838;28;20428;-83
2023/08/19 07:27:09;;;;;;;12.93;5.73;;;26.60;1.00;;;;;;4959523;28;20456;-81
2023/08/19 07:29:35;;;;;;;7.87;5.50;;;26.70;1.00;;;;;;4970490;28;20945;-83
2023/08/19 07:32:02;;;;;;;15.70;6.60;;;26.90;1.00;;;;;;4964012;28;20458;-83
2023/08/19 07:34:28;;;;;;;7.87;6.57;;;27.00;99.90;;;;;;4957314;28;20519;-83
2023/08/19 07:36:54;;;;;;;11.93;6.70;;;27.00;99.90;;;;;;4963765;28;20938;-82
2023/08/19 07:39:20;;;;;;;8.07;5.80;;;27.10;99.90;;;;;;4968300;28;20441;-83
2023/08/19 07:41:45;;;;;;;8.20;5.83;;;27.20;99.90;;;;;;4969297;28;20295;-82
2023/08/19 07:44:11;;;;;;;6.97;5.00;;;27.20;99.90;;;;;;4969049;28;20185;-83
2023/08/19 07:46:36;;;;;;;8.07;5.80;;;27.20;99.90;;;;;;4976096;28;20599;-84
2023/08/19 07:49:02;;;;;;;8.63;5.87;;;27.10;99.90;;;;;;4977950;28;20224;-83
2023/08/19 07:51:27;;;;;;;11.37;6.00;;;27.10;99.90;;;;;;4965454;28;20227;-82
2023/08/19 07:53:53;;;;;;;10.27;6.17;;;27.20;99.90;;;;;;4965966;28;20213;-83
2023/08/19 07:56:18;;;;;;;5.50;4.93;;;27.20;99.90;;;;;;4969602;28;20180;-84
2023/08/19 07:58:44;;;;;;;7.90;5.37;;;27.60;99.90;;;;;;4966437;28;20212;-84
2023/08/19 08:01:10;;;;;;;10.20;6.40;;;28.10;99.90;;;;;;4962016;28;20284;-84
2023/08/19 08:03:38;;;;;;;9.77;8.80;;;28.90;99.90;;;;;;4966943;28;20512;-84
2023/08/19 08:06:04;;;;;;;11.20;5.70;;;30.90;1.00;;;;;;4970319;28;20654;-83
2023/08/19 08:08:29;;;;;;;5.33;4.83;;;31.80;1.00;;;;;;4980625;28;20480;-84
2023/08/19 08:10:55;;;;;;;10.27;4.80;;;32.00;1.00;;;;;;4971752;28;20679;-85
2023/08/19 08:13:20;;;;;;;7.33;4.40;;;32.20;1.00;;;;;;4969163;28;20303;-83
2023/08/19 08:15:47;;;;;;;7.90;4.70;;;32.50;1.00;;;;;;4979507;28;20177;-85
2023/08/19 08:18:12;;;;;;;8.00;4.93;;;34.10;1.00;;;;;;4973970;28;20242;-84
2023/08/19 08:20:38;;;;;;;6.73;4.80;;;34.30;1.00;;;;;;4973542;28;20504;-84
2023/08/19 08:23:03;;;;;;;9.87;4.43;;;33.50;1.00;;;;;;4968878;28;20225;-83
2023/08/19 08:25:29;;;;;;;5.80;4.60;;;33.40;1.00;;;;;;4969491;28;20196;-84
2023/08/19 08:27:55;;;;;;;8.90;4.57;;;33.50;1.00;;;;;;4970291;28;20184;-84
2023/08/19 08:30:21;;;;;;;8.70;4.23;;;34.10;1.00;;;;;;4972342;28;20886;-84
2023/08/19 08:32:47;;;;;;;8.40;3.93;;;37.60;1.00;;;;;;4970444;28;20698;-85
2023/08/19 08:35:12;;;;;;;7.50;3.83;;;39.90;1.00;;;;;;4962672;28;20267;-84
2023/08/19 08:37:38;;;;;;;6.43;4.40;;;42.60;1.00;;;;;;4962718;28;20468;-85
2023/08/19 08:40:04;;;;;;;6.43;4.50;;;41.80;1.00;;;;;;4960779;28;21419;-85
2023/08/19 08:42:30;;;;;;;4.20;3.63;;;39.80;1.00;;;;;;4967028;28;20197;-83
2023/08/19 08:44:58;;;;;;;6.00;4.23;;;39.50;1.00;;;;;;4971541;28;20440;-84
2023/08/19 08:47:25;;;;;;;5.70;4.30;;;39.10;1.00;;;;;;4971833;28;20475;-84
2023/08/19 08:49:53;;;;;;;5.43;3.93;;;38.50;1.00;;;;;;4979925;28;20472;-85
2023/08/19 08:52:20;;;;;;;7.33;4.27;;;37.60;1.00;;;;;;4972914;28;20491;-84
2023/08/19 08:54:48;;;;;;;5.97;4.00;;;37.30;1.00;;;;;;4980273;28;20450;-85
2023/08/19 08:57:16;;;;;;;8.53;3.67;;;37.00;1.00;;;;;;4976081;28;20442;-85
2023/08/19 08:59:42;;;;;;;6.60;4.00;;;37.60;1.00;;;;;;4975964;28;20544;-84
2023/08/19 09:02:11;;;;;;;6.57;3.90;;;38.60;1.00;;;;;;4969558;28;20440;-85
2023/08/19 09:04:38;;;;;;;4.70;4.20;;;38.70;1.00;;;;;;4959980;28;20450;-85
2023/08/19 09:07:09;;;;;;;6.93;3.70;;;39.10;1.00;;;;;;4970058;28;20523;-84
2023/08/19 09:09:38;;;;;;;6.03;4.23;;;40.00;1.00;;;;;;4969856;28;20497;-83
2023/08/19 09:12:11;;;;;;;7.30;3.73;;;39.90;1.00;;;;;;4968209;28;20427;-83
2023/08/19 09:14:44;;;;;;;11.67;4.10;;;39.40;1.00;;;;;;4960092;28;20451;-84
2023/08/19 09:17:14;;;;;;;8.20;4.30;;;39.10;1.00;;;;;;4961448;28;20937;-85
2023/08/19 09:19:40;;;;;;;6.87;4.83;;;38.70;1.00;;;;;;4963683;28;20969;-84
2023/08/19 09:22:20;;;;;;;8.33;4.10;;;38.10;1.00;;;;;;4963583;28;20439;-85
2023/08/19 09:24:46;;;;;;;7.57;4.47;;;37.60;1.00;;;;;;4968844;28;20431;-84
2023/08/19 09:27:11;;;;;;;9.30;4.57;;;37.10;1.00;;;;;;4960728;28;20451;-84
2023/08/19 09:29:46;;;;;;;7.33;4.50;;;37.00;1.00;;;;;;4983470;28;20203;-84
2023/08/19 09:32:12;;;;;;;6.00;4.37;;;36.60;1.00;;;;;;4960543;28;20207;-83
2023/08/19 09:34:37;;;;;;;6.67;4.33;;;36.70;1.00;;;;;;4964060;28;20451;-84
2023/08/19 09:37:03;;;;;;;6.70;4.73;;;36.50;1.00;;;;;;4962529;28;20778;-84
2023/08/19 09:39:35;;;;;;;7.47;4.70;;;36.10;1.00;;;;;;4954881;28;20189;-85
2023/08/19 09:42:01;;;;;;;11.43;5.20;;;35.80;1.00;;;;;;4962673;28;20441;-84
2023/08/19 09:44:30;;;;;;;7.20;5.40;;;35.50;1.00;;;;;;4962320;28;20883;-84
2023/08/19 09:46:56;;;;;;;5.77;4.20;;;35.30;1.00;;;;;;4960995;28;20233;-83
2023/08/19 09:49:23;;;;;;;9.40;4.23;;;35.20;1.00;;;;;;4957977;28;20819;-84
2023/08/19 09:51:59;;;;;;;8.53;4.90;;;35.00;1.00;;;;;;4967737;28;20470;-84
2023/08/19 09:54:25;;;;;;;10.50;5.40;;;34.70;1.00;;;;;;4964114;28;20490;-84
2023/08/19 09:56:58;;;;;;;9.17;5.60;;;34.50;1.00;;;;;;4968207;28;20475;-84
2023/08/19 09:59:25;;;;;;;7.70;5.63;;;34.40;1.00;;;;;;4967748;28;20452;-83
2023/08/19 10:01:52;;;;;;;8.80;5.60;;;34.30;1.00;;;;;;4965281;28;21005;-84
2023/08/19 10:04:21;;;;;;;11.40;6.37;;;34.10;1.00;;;;;;4967542;28;20451;-84
2023/08/19 10:06:50;;;;;;;8.37;5.83;;;33.90;1.00;;;;;;4957417;28;20886;-83
2023/08/19 10:09:20;;;;;;;6.20;5.60;;;33.60;1.00;;;;;;4962500;28;20444;-83
2023/08/19 10:11:52;;;;;;;9.90;5.53;;;33.30;1.00;;;;;;4960374;28;20476;-83
2023/08/19 10:14:23;;;;;;;10.40;5.73;;;33.10;1.00;;;;;;4958994;28;21008;-83
2023/08/19 10:16:50;;;;;;;11.07;5.47;;;33.00;1.00;;;;;;4963055;28;20444;-84
2023/08/19 10:19:20;;;;;;;7.00;6.30;;;32.80;1.00;;;;;;4970984;28;20926;-84
2023/08/19 10:21:48;;;;;;;8.50;6.00;;;32.60;1.00;;;;;;4963502;28;20464;-84
2023/08/19 10:24:16;;;;;;;7.00;6.00;;;32.50;1.00;;;;;;4967718;28;20463;-84
2023/08/19 10:26:49;;;;;;;12.80;6.30;;;32.40;1.00;;;;;;4972558;28;20435;-84
2023/08/19 10:29:16;;;;;;;8.50;5.70;;;32.40;1.00;;;;;;4972895;28;20456;-84
2023/08/19 10:31:42;;;;;;;6.63;6.00;;;32.40;1.00;;;;;;4964702;28;20479;-84
2023/08/19 10:34:25;;;;;;;7.83;5.73;;;32.50;1.00;;;;;;4970267;28;20840;-84
2023/08/19 10:37:07;;;;;;;10.23;6.43;;;32.70;1.00;;;;;;4974705;28;20783;-84
2023/08/19 10:39:33;;;;;;;7.53;6.67;;;32.80;1.00;;;;;;4977974;28;20450;-84
2023/08/19 10:41:58;;;;;;;15.70;6.90;;;32.90;1.00;;;;;;4962489;28;20820;-84
2023/08/19 10:44:31;;;;;;;7.93;6.67;;;32.90;1.00;;;;;;4967522;28;20179;-83
2023/08/19 10:47:13;;;;;;;8.73;6.37;;;33.00;1.00;;;;;;4967238;28;20252;-82
2023/08/19 10:49:39;;;;;;;9.63;6.27;;;33.20;1.00;;;;;;4965017;28;20464;-84
2023/08/19 10:52:05;;;;;;;7.03;6.23;;;32.90;1.00;;;;;;4968365;28;20439;-83
2023/08/19 10:54:40;;;;;;;8.87;7.00;;;33.10;1.00;;;;;;4971853;28;20195;-83
2023/08/19 10:57:05;;;;;;;10.53;6.63;;;33.10;1.00;;;;;;4984334;28;20192;-84
2023/08/19 10:59:34;;;;;;;8.63;6.20;;;33.00;1.00;;;;;;4974145;28;20440;-83
2023/08/19 11:01:59;;;;;;;11.30;6.50;;;33.20;1.00;;;;;;4964731;28;20207;-83
2023/08/19 11:04:25;;;;;;;10.13;7.00;;;33.40;1.00;;;;;;4970551;28;20470;-82
2023/08/19 11:06:52;;;;;;;9.70;7.10;;;33.50;1.00;;;;;;4976805;28;20188;-83
2023/08/19 11:09:18;;;;;;;7.03;6.40;;;33.60;1.00;;;;;;4963762;28;20211;-82
2023/08/19 11:11:44;;;;;;;8.30;7.30;;;33.50;1.00;;;;;;4975172;28;20452;-83
2023/08/19 11:14:18;;;;;;;11.67;7.20;;;33.50;1.00;;;;;;4961332;28;20635;-83
2023/08/19 11:16:47;;;;;;;8.43;6.83;;;33.50;1.00;;;;;;4962092;28;20189;-83
2023/08/19 11:19:13;;;;;;;14.40;6.97;;;33.40;1.00;;;;;;4970713;28;20464;-84
2023/08/19 11:21:42;;;;;;;10.20;6.93;;;33.30;1.00;;;;;;4968721;28;20460;-83
2023/08/19 11:24:09;;;;;;;9.77;7.20;;;33.20;1.00;;;;;;4969815;28;20184;-83
2023/08/19 11:26:35;;;;;;;8.33;7.53;;;33.20;1.00;;;;;;4959851;28;20523;-83
2023/08/19 11:29:05;;;;;;;11.00;8.10;;;33.00;1.00;;;;;;4961834;28;20463;-82
2023/08/19 11:31:31;;;;;;;13.50;8.70;;;32.80;1.00;;;;;;4965350;28;20468;-81
2023/08/19 11:33:57;;;;;;;11.10;8.03;;;32.80;1.00;;;;;;4971440;28;20494;-82
2023/08/19 11:36:26;;;;;;;9.87;8.70;;;32.70;1.00;;;;;;4968378;28;20445;-84
2023/08/19 11:38:56;;;;;;;8.87;8.07;;;32.50;1.00;;;;;;4964815;28;20561;-83
2023/08/19 11:41:22;;;;;;;11.70;8.90;;;32.60;1.00;;;;;;4969521;28;20460;-82
2023/08/19 11:43:50;;;;;;;18.17;9.47;;;32.70;1.00;;;;;;4978437;28;20443;-84
2023/08/19 11:46:16;;;;;;;13.47;9.60;;;32.70;1.00;;;;;;4982223;28;20436;-82
2023/08/19 11:48:42;;;;;;;10.67;8.50;;;32.60;1.00;;;;;;4973090;28;20463;-82
2023/08/19 11:51:12;;;;;;;11.43;8.43;;;32.40;1.00;;;;;;4970028;28;20216;-83
2023/08/19 11:53:39;;;;;;;11.60;7.60;;;32.40;1.00;;;;;;4965857;28;20492;-83
2023/08/19 11:56:05;;;;;;;13.00;8.27;;;32.20;1.00;;;;;;4968533;28;20470;-81
2023/08/19 11:59:02;;;;;;;10.90;9.13;;;32.20;1.00;;;;;;4964867;28;20479;-81
2023/08/19 12:01:28;;;;;;;10.80;9.00;;;32.60;1.00;;;;;;4959133;28;20499;-84
2023/08/19 12:03:54;;;;;;;12.33;8.00;;;32.60;1.00;;;;;;4967599;28;20447;-83
2023/08/19 12:06:20;;;;;;;13.53;8.43;;;33.10;1.00;;;;;;4959415;28;20211;-82
2023/08/19 12:08:49;;;;;;;11.60;7.77;;;33.70;1.00;;;;;;4960555;28;20444;-84
2023/08/19 12:11:24;;;;;;;8.83;7.93;;;34.70;1.00;;;;;;4967476;28;20236;-84
2023/08/19 12:13:50;;;;;;;18.70;9.83;;;34.80;1.00;;;;;;4973716;28;20494;-83
2023/08/19 12:16:15;;;;;;;7.87;7.10;;;34.90;1.00;;;;;;4976564;28;20511;-82
2023/08/19 12:18:41;;;;;;;9.23;8.20;;;35.10;1.00;;;;;;4964979;28;20569;-82
2023/08/19 12:21:06;;;;;;;10.47;9.37;;;35.10;1.00;;;;;;4973656;28;20205;-84
2023/08/19 12:23:32;;;;;;;9.83;8.93;;;34.50;1.00;;;;;;4966426;28;20314;-84
2023/08/19 12:25:59;;;;;;;9.80;8.60;;;33.90;1.00;;;;;;4961129;28;20240;-83
2023/08/19 12:28:25;;;;;;;8.93;8.13;;;33.50;1.00;;;;;;4969157;28;20209;-84
2023/08/19 12:30:52;;;;;;;10.50;9.37;;;33.20;1.00;;;;;;4971254;28;20439;-83
2023/08/19 12:33:19;;;;;;;13.63;10.10;;;32.90;1.00;;;;;;4976506;28;20463;-82
2023/08/19 12:35:46;;;;;;;10.77;9.60;;;32.30;1.00;;;;;;4959734;28;20448;-82
2023/08/19 12:38:18;;;;;;;11.20;9.17;;;31.80;1.00;;;;;;4977230;28;20416;-83
2023/08/19 12:40:45;;;;;;;12.47;10.57;;;31.50;1.00;;;;;;4962670;28;20431;-83
2023/08/19 12:43:12;;;;;;;12.23;9.53;;;31.10;1.00;;;;;;4960687;28;20417;-82
2023/08/19 12:45:38;;;;;;;15.13;11.10;;;30.90;1.00;;;;;;4962511;28;20421;-82
2023/08/19 12:48:04;;;;;;;17.27;10.53;;;30.50;1.00;;;;;;4967952;28;20462;-82